Time;durP1;ratioP1;P1;durP2;ratioP2;P2;SDS_P1;SDS_P2;PMS_P1;PMS_P2;Temp;Humidity;BMP_temperature;BMP_pressure;BME280_temperature;BME280_humidity;BME280_pressure;Samples;Min_cycle;Max_cycle;Signal;HPM_P1;HPM_P2
2021/08/11 00:01:07;;;;;;;;;3.75;3.75;;;;;22.45;60.34;101454.16;5001174;28;45295;-84
2021/08/11 00:03:33;;;;;;;;;3.00;3.00;;;;;22.43;60.46;101450.69;5000804;28;45244;-83
2021/08/11 00:05:58;;;;;;;;;3.25;3.25;;;;;22.43;60.67;101460.69;5000782;28;45437;-84
2021/08/11 00:08:24;;;;;;;;;3.25;3.25;;;;;22.42;60.67;101464.38;5000525;28;45654;-83
2021/08/11 00:10:49;;;;;;;;;3.50;3.50;;;;;22.39;60.95;101460.91;5000895;28;45326;-84
2021/08/11 00:13:14;;;;;;;;;4.00;3.75;;;;;22.38;60.43;101456.44;5000753;28;45253;-84
2021/08/11 00:15:40;;;;;;;;;3.50;2.50;;;;;22.37;60.96;101462.88;5000367;28;45465;-84
2021/08/11 00:18:05;;;;;;;;;3.00;3.00;;;;;22.36;61.15;101461.13;5000335;28;46092;-83
2021/08/11 00:20:30;;;;;;;;;2.75;2.75;;;;;22.35;60.60;101466.66;5000693;28;45287;-83
2021/08/11 00:22:56;;;;;;;;;2.75;2.00;;;;;22.31;61.10;101457.88;5000488;28;45369;-83
2021/08/11 00:25:21;;;;;;;;;2.50;2.50;;;;;22.32;61.09;101464.16;5000585;28;45307;-84
2021/08/11 00:27:46;;;;;;;;;3.00;3.00;;;;;22.27;60.78;101469.91;5000233;28;46084;-84
2021/08/11 00:30:12;;;;;;;;;4.75;4.00;;;;;22.28;61.30;101471.66;5000412;28;45413;-83
2021/08/11 00:32:38;;;;;;;;;4.00;4.00;;;;;22.27;61.34;101479.91;5000316;28;45378;-83
2021/08/11 00:35:03;;;;;;;;;3.00;2.00;;;;;22.20;61.26;101474.91;5000505;28;45403;-84
2021/08/11 00:37:29;;;;;;;;;2.00;2.00;;;;;22.22;61.62;101477.53;5000158;28;45319;-84
2021/08/11 00:39:58;;;;;;;;;3.00;3.00;;;;;22.20;61.32;101480.34;5000366;28;45303;-83
2021/08/11 00:42:24;;;;;;;;;3.00;3.00;;;;;22.23;61.50;101483.84;4999383;28;45237;-83
2021/08/11 00:44:49;;;;;;;;;2.50;2.50;;;;;22.19;61.37;101481.31;5000269;28;45311;-84
2021/08/11 00:47:16;;;;;;;;;2.50;2.00;;;;;22.20;61.48;101488.50;4999839;28;46083;-83
2021/08/11 00:49:42;;;;;;;;;5.00;4.25;;;;;22.18;61.21;101489.59;5000238;28;45500;-84
2021/08/11 00:52:07;;;;;;;;;2.00;2.00;;;;;22.11;61.35;101494.56;5000150;28;45372;-83
2021/08/11 00:54:34;;;;;;;;;2.25;2.25;;;;;22.16;61.61;101496.97;5000016;28;45454;-83
2021/08/11 00:57:04;;;;;;;;;4.75;4.00;;;;;22.09;61.38;101482.09;4999743;28;46165;-84
2021/08/11 00:59:33;;;;;;;;;2.00;2.00;;;;;22.16;61.96;101496.97;5000021;28;45464;-83
2021/08/11 01:02:01;;;;;;;;;4.00;3.00;;;;;22.11;61.44;101486.41;5000281;28;45334;-83
2021/08/11 01:04:27;;;;;;;;;2.25;2.25;;;;;22.09;61.57;101499.25;4999974;28;45333;-83
2021/08/11 01:06:54;;;;;;;;;2.25;2.25;;;;;22.12;61.11;101504.47;4999910;28;45321;-83
2021/08/11 01:09:20;;;;;;;;;2.25;2.25;;;;;22.10;61.75;101503.72;5000054;28;45502;-83
2021/08/11 01:11:49;;;;;;;;;0.75;0.75;;;;;22.13;61.33;101502.63;5000060;28;45292;-84
2021/08/11 01:14:15;;;;;;;;;2.25;2.25;;;;;22.13;61.86;101494.47;4999600;28;45245;-83
2021/08/11 01:16:41;;;;;;;;;2.00;2.00;;;;;22.10;61.74;101495.56;4999612;28;45948;-83
2021/08/11 01:19:06;;;;;;;;;1.50;1.50;;;;;22.09;62.02;101491.09;4999826;28;45327;-83
2021/08/11 01:21:51;;;;;;;;;3.25;3.00;;;;;22.08;61.91;101488.47;4999809;28;45279;-83
2021/08/11 01:24:32;;;;;;;;;2.50;2.00;;;;;22.08;62.12;101497.50;4999784;28;45197;-83
2021/08/11 01:27:06;;;;;;;;;2.75;2.75;;;;;22.06;61.67;101480.44;4999627;28;46065;-83
2021/08/11 01:29:47;;;;;;;;;2.00;2.00;;;;;22.01;61.42;101477.16;4999300;28;45324;-83
2021/08/11 01:32:31;;;;;;;;;2.00;2.00;;;;;22.02;61.26;101476.19;4999789;28;45233;-83
2021/08/11 01:34:59;;;;;;;;;1.75;1.75;;;;;21.97;61.26;101472.94;4999738;28;45224;-83
2021/08/11 01:37:29;;;;;;;;;3.25;2.25;;;;;21.97;61.42;101473.78;4999439;28;46495;-82
2021/08/11 01:40:01;;;;;;;;;1.25;1.25;;;;;21.96;61.44;101476.63;4999745;28;45364;-83
2021/08/11 01:42:30;;;;;;;;;2.00;2.00;;;;;21.96;61.64;101482.06;4999425;28;45319;-82
2021/08/11 01:45:04;;;;;;;;;2.75;1.50;;;;;21.94;61.59;101476.72;4999427;28;45510;-82
2021/08/11 01:47:36;;;;;;;;;2.00;1.00;;;;;21.92;60.90;101469.63;4999384;28;46913;-83
2021/08/11 01:50:01;;;;;;;;;3.00;2.00;;;;;21.78;60.68;101449.72;4999527;28;45388;-83
2021/08/11 01:52:28;;;;;;;;;1.00;1.00;;;;;21.76;60.84;101451.66;5000376;28;45253;-83
2021/08/11 01:54:53;;;;;;;;;1.25;1.25;;;;;21.83;61.01;101466.59;5002937;28;45376;-83
2021/08/11 01:57:19;;;;;;;;;1.00;1.00;;;;;21.79;60.89;101456.03;5002498;28;45311;-83
2021/08/11 01:59:46;;;;;;;;;1.00;1.00;;;;;21.79;60.83;101459.59;5002503;28;45231;-83
2021/08/11 02:02:14;;;;;;;;;1.25;1.25;;;;;21.74;60.57;101453.63;5002667;28;45220;-82
2021/08/11 02:04:40;;;;;;;;;2.00;2.00;;;;;21.76;60.19;101464.38;5002724;28;45406;-82
2021/08/11 02:07:05;;;;;;;;;1.50;1.00;;;;;21.74;60.28;101456.34;5002348;28;46156;-82
2021/08/11 02:09:31;;;;;;;;;1.00;1.00;;;;;21.72;60.82;101447.44;5002838;28;45350;-82
2021/08/11 02:11:56;;;;;;;;;2.00;1.00;;;;;21.70;60.34;101454.81;5002706;28;45336;-82
2021/08/11 02:14:22;;;;;;;;;1.00;1.00;;;;;21.68;60.11;101453.16;5002390;28;45249;-82
2021/08/11 02:16:48;;;;;;;;;1.50;1.00;;;;;21.63;60.78;101448.94;5002070;28;46244;-83
2021/08/11 02:19:13;;;;;;;;;2.00;2.00;;;;;21.65;60.53;101455.13;5002403;28;45309;-83
2021/08/11 02:21:40;;;;;;;;;2.00;2.00;;;;;21.62;60.25;101447.19;5002435;28;45328;-82
2021/08/11 02:24:08;;;;;;;;;1.00;1.00;;;;;21.57;60.75;101443.91;5002408;28;45196;-83
2021/08/11 02:26:45;;;;;;;;;2.00;2.00;;;;;21.59;60.37;101450.09;5002041;28;45189;-83
2021/08/11 02:29:21;;;;;;;;;2.25;1.50;;;;;21.58;60.43;101447.47;5001931;28;45462;-83
2021/08/11 02:32:20;;;;;;;;;2.25;2.00;;;;;21.55;60.94;101450.41;5002366;28;45312;-83
2021/08/11 02:35:00;;;;;;;;;3.00;2.00;;;;;21.45;60.23;101441.97;5002240;28;45216;-83
2021/08/11 02:37:34;;;;;;;;;1.00;1.00;;;;;21.52;60.75;101458.75;5001943;28;47093;-83
2021/08/11 02:40:08;;;;;;;;;0.75;0.75;;;;;21.50;60.83;101455.28;5002372;28;45604;-82
2021/08/11 02:42:39;;;;;;;;;1.00;1.00;;;;;21.46;60.67;101454.59;5002066;28;45252;-83
2021/08/11 02:45:11;;;;;;;;;1.75;1.00;;;;;21.44;59.91;101446.53;5001993;28;45282;-82
2021/08/11 02:47:38;;;;;;;;;1.25;1.25;;;;;21.38;60.05;101441.50;5001784;28;45344;-82
2021/08/11 02:50:07;;;;;;;;;2.50;2.00;;;;;21.41;60.49;101452.16;5002064;28;45355;-82
2021/08/11 02:52:35;;;;;;;;;3.00;1.00;;;;;21.38;60.34;101446.94;5001833;28;45376;-82
2021/08/11 02:55:01;;;;;;;;;2.25;1.25;;;;;21.36;60.53;101448.88;5001592;28;45244;-82
2021/08/11 02:57:29;;;;;;;;;2.00;2.00;;;;;21.33;59.93;101445.50;5001538;28;45335;-82
2021/08/11 02:59:56;;;;;;;;;1.00;1.00;;;;;21.29;59.97;101444.84;5001803;28;45340;-83
2021/08/11 03:02:22;;;;;;;;;2.00;2.00;;;;;21.28;60.52;101444.00;5001726;28;45392;-82
2021/08/11 03:04:48;;;;;;;;;1.00;1.00;;;;;21.26;60.37;101450.47;5000944;28;45462;-82
2021/08/11 03:07:14;;;;;;;;;1.00;1.00;;;;;21.25;60.63;101454.16;5001614;28;46092;-83
2021/08/11 03:09:40;;;;;;;;;2.00;2.00;;;;;21.20;60.34;101448.16;5001653;28;45377;-83
2021/08/11 03:12:08;;;;;;;;;1.00;1.00;;;;;21.19;60.35;101452.72;5001554;28;45319;-82
2021/08/11 03:14:35;;;;;;;;;1.00;1.00;;;;;21.13;60.72;101435.97;5001366;28;45371;-82
2021/08/11 03:17:00;;;;;;;;;2.50;2.50;;;;;21.14;60.43;101446.75;5001214;28;46230;-83
2021/08/11 03:19:25;;;;;;;;;1.00;1.00;;;;;21.12;60.56;101453.22;5001341;28;45248;-82
2021/08/11 03:21:51;;;;;;;;;2.00;2.00;;;;;21.10;60.08;101450.63;5001485;28;45276;-82
2021/08/11 03:24:18;;;;;;;;;2.00;2.00;;;;;21.07;60.14;101454.41;5001365;28;45140;-82
2021/08/11 03:26:43;;;;;;;;;2.00;2.00;;;;;21.03;60.33;101449.28;5001097;28;46277;-82
2021/08/11 03:29:09;;;;;;;;;2.00;2.00;;;;;21.00;60.24;101447.66;5001126;28;45141;-82
2021/08/11 03:31:34;;;;;;;;;2.00;2.00;;;;;21.00;60.43;101453.06;5001363;28;45372;-82
2021/08/11 03:33:59;;;;;;;;;2.25;2.00;;;;;21.00;60.55;101455.78;4999937;28;45360;-82
2021/08/11 03:36:27;;;;;;;;;3.00;2.00;;;;;21.00;61.06;101454.91;5000846;28;46176;-82
2021/08/11 03:38:52;;;;;;;;;2.00;2.00;;;;;20.98;60.64;101460.47;5001226;28;45304;-82
2021/08/11 03:41:18;;;;;;;;;2.50;2.00;;;;;20.98;61.17;101465.88;5001226;28;45278;-82
2021/08/11 03:43:44;;;;;;;;;3.00;2.25;;;;;20.96;61.24;101458.78;5001052;28;45517;-82
2021/08/11 03:46:10;;;;;;;;;1.00;1.00;;;;;20.92;60.55;101461.72;5000864;28;45166;-83
2021/08/11 03:48:35;;;;;;;;;1.75;1.75;;;;;20.91;61.16;101461.81;4999803;28;45222;-83
2021/08/11 03:51:01;;;;;;;;;3.00;1.25;;;;;20.88;60.91;101460.19;5000970;28;45243;-83
2021/08/11 03:53:26;;;;;;;;;1.50;1.50;;;;;20.88;61.01;101465.59;5000968;28;45241;-83
2021/08/11 03:55:51;;;;;;;;;1.50;1.25;;;;;20.87;61.42;101469.28;5000523;28;45245;-82
2021/08/11 03:58:17;;;;;;;;;3.25;2.25;;;;;20.89;61.36;101470.03;5000733;28;45431;-83
2021/08/11 04:00:44;;;;;;;;;2.25;2.25;;;;;20.88;61.33;101473.75;5001002;28;45217;-82
2021/08/11 04:03:09;;;;;;;;;1.00;1.00;;;;;20.87;61.66;101473.84;5000802;28;45225;-83
2021/08/11 04:05:35;;;;;;;;;1.00;1.00;;;;;20.86;61.52;101477.50;5000556;28;46116;-83
2021/08/11 04:08:00;;;;;;;;;1.00;1.00;;;;;20.87;62.02;101479.25;5000728;28;45319;-82
2021/08/11 04:10:26;;;;;;;;;1.50;1.50;;;;;20.87;62.13;101476.56;5000630;28;45286;-83
2021/08/11 04:12:51;;;;;;;;;1.00;1.00;;;;;20.87;61.96;101468.41;5000677;28;45300;-82
2021/08/11 04:15:16;;;;;;;;;1.00;1.00;;;;;20.88;61.87;101479.16;4999676;28;46236;-82
2021/08/11 04:17:42;;;;;;;;;1.00;0.00;;;;;20.91;61.77;101480.78;4999643;28;45334;-83
2021/08/11 04:20:08;;;;;;;;;2.00;2.00;;;;;20.87;62.34;101471.13;5000850;28;45340;-83
2021/08/11 04:22:34;;;;;;;;;1.00;1.00;;;;;20.92;61.75;101486.13;5000532;28;45521;-82
2021/08/11 04:24:59;;;;;;;;;1.00;1.00;;;;;20.90;61.59;101470.94;5000487;28;46429;-83
2021/08/11 04:27:24;;;;;;;;;1.00;1.00;;;;;20.92;61.46;101482.56;5000324;28;45435;-83
2021/08/11 04:29:50;;;;;;;;;0.00;0.00;;;;;20.90;61.25;101479.94;5000255;28;46425;-83
2021/08/11 04:32:15;;;;;;;;;2.00;2.00;;;;;20.89;61.60;101480.91;5000340;28;45180;-82
2021/08/11 04:34:41;;;;;;;;;2.00;1.00;;;;;20.87;61.80;101476.56;5000264;28;45213;-82
2021/08/11 04:37:06;;;;;;;;;3.25;1.50;;;;;20.89;61.72;101480.91;5000270;28;45299;-82
2021/08/11 04:39:32;;;;;;;;;2.00;2.00;;;;;20.86;61.83;101488.38;5000345;28;45243;-83
2021/08/11 04:41:58;;;;;;;;;0.75;0.75;;;;;20.89;61.30;101482.75;5000263;28;45410;-83
2021/08/11 04:44:23;;;;;;;;;1.00;1.00;;;;;20.89;61.42;101482.75;4999794;28;45220;-83
2021/08/11 04:46:49;;;;;;;;;1.00;0.50;;;;;20.85;61.82;101481.22;5000346;28;45286;-82
2021/08/11 04:49:14;;;;;;;;;2.00;2.00;;;;;20.87;61.41;101495.53;5000350;28;45668;-82
2021/08/11 04:51:39;;;;;;;;;1.25;1.25;;;;;20.86;61.39;101500.06;5000298;28;45469;-83
2021/08/11 04:54:05;;;;;;;;;2.00;2.00;;;;;20.81;61.53;101491.38;4999805;28;46073;-83
2021/08/11 04:56:30;;;;;;;;;1.00;1.00;;;;;20.84;61.23;101498.44;5000284;28;45304;-83
2021/08/11 04:58:55;;;;;;;;;2.50;1.50;;;;;20.82;61.68;101497.69;4999939;28;45289;-83
2021/08/11 05:01:20;;;;;;;;;2.25;2.00;;;;;20.80;61.83;101495.06;5000092;28;46110;-83
2021/08/11 05:03:46;;;;;;;;;2.00;1.75;;;;;20.77;61.71;101486.25;4999753;28;45306;-83
2021/08/11 05:06:11;;;;;;;;;1.00;1.00;;;;;20.79;61.81;101490.59;5000031;28;45375;-82
2021/08/11 05:08:38;;;;;;;;;1.75;1.75;;;;;20.78;61.61;101497.00;5000062;28;45315;-83
2021/08/11 05:11:03;;;;;;;;;1.00;1.00;;;;;20.78;61.92;101505.16;5000035;28;45327;-82
2021/08/11 05:13:29;;;;;;;;;2.00;2.00;;;;;20.74;61.76;101506.28;4999577;28;45426;-83
2021/08/11 05:15:54;;;;;;;;;2.00;1.00;;;;;20.76;61.76;101512.50;5000104;28;45265;-83
2021/08/11 05:18:20;;;;;;;;;2.00;2.00;;;;;20.76;62.18;101519.78;4999950;28;45195;-83
2021/08/11 05:20:45;;;;;;;;;2.00;2.00;;;;;20.75;61.91;101513.47;4999904;28;45178;-82
2021/08/11 05:23:11;;;;;;;;;2.00;2.00;;;;;20.73;62.32;101509.97;4999722;28;45172;-83
2021/08/11 05:25:36;;;;;;;;;2.00;1.00;;;;;20.75;61.90;101515.28;4999686;28;45388;-83
2021/08/11 05:28:02;;;;;;;;;2.00;2.00;;;;;20.71;62.09;101506.47;5001627;28;45232;-83
2021/08/11 05:30:27;;;;;;;;;2.50;2.50;;;;;20.72;62.45;101517.25;5002976;28;45215;-83
2021/08/11 05:32:52;;;;;;;;;4.00;3.00;;;;;20.72;62.24;101522.66;5002864;28;46834;-83
2021/08/11 05:35:17;;;;;;;;;4.25;3.25;;;;;20.70;62.32;101513.75;5003123;28;45328;-82
2021/08/11 05:37:43;;;;;;;;;3.50;3.50;;;;;20.71;62.50;101520.94;5003018;28;45306;-82
2021/08/11 05:40:09;;;;;;;;;4.00;4.00;;;;;20.69;62.32;101517.44;5003270;28;45312;-82
2021/08/11 05:42:34;;;;;;;;;2.00;2.00;;;;;20.75;62.67;101527.03;5002684;28;45941;-83
2021/08/11 05:45:00;;;;;;;;;4.00;3.50;;;;;20.74;62.55;101522.56;5002816;28;45460;-83
2021/08/11 05:47:25;;;;;;;;;5.25;4.25;;;;;20.77;62.79;101526.94;5002949;28;45328;-83
2021/08/11 05:49:50;;;;;;;;;4.00;4.00;;;;;20.78;63.35;101526.84;5002978;28;45280;-82
2021/08/11 05:52:16;;;;;;;;;6.00;4.75;;;;;20.80;62.72;101526.72;5002685;28;45383;-82
2021/08/11 05:54:41;;;;;;;;;6.50;6.50;;;;;20.82;62.71;101532.97;5002685;28;45316;-83
2021/08/11 05:57:08;;;;;;;;;4.75;4.75;;;;;20.81;62.97;101528.50;5002721;28;45398;-82
2021/08/11 05:59:35;;;;;;;;;4.75;4.75;;;;;20.86;63.25;101545.34;5002709;28;45299;-84
2021/08/11 06:02:00;;;;;;;;;4.00;3.50;;;;;20.86;63.29;101538.06;5002387;28;45324;-83
2021/08/11 06:04:28;;;;;;;;;6.00;3.00;;;;;20.87;62.83;101545.25;5002742;28;45200;-83
2021/08/11 06:06:53;;;;;;;;;2.50;2.00;;;;;20.89;63.07;101548.72;5002602;28;45225;-83
2021/08/11 06:09:19;;;;;;;;;2.75;2.00;;;;;20.88;62.86;101543.41;5002866;28;45492;-83
2021/08/11 06:11:45;;;;;;;;;2.75;2.75;;;;;20.89;63.22;101543.31;5002571;28;45790;-83
2021/08/11 06:14:10;;;;;;;;;1.00;1.00;;;;;20.90;62.82;101549.63;5002253;28;45332;-82
2021/08/11 06:16:36;;;;;;;;;1.00;1.00;;;;;20.95;62.51;101554.75;5002475;28;45393;-83
2021/08/11 06:19:02;;;;;;;;;1.50;1.00;;;;;20.96;62.95;101556.50;5002300;28;45326;-82
2021/08/11 06:21:28;;;;;;;;;4.00;2.00;;;;;20.96;62.71;101548.34;5002237;28;45486;-82
2021/08/11 06:23:54;;;;;;;;;3.00;2.75;;;;;20.98;62.88;101552.72;5002360;28;45303;-83
2021/08/11 06:26:21;;;;;;;;;2.25;2.00;;;;;21.00;63.12;101544.47;5002247;28;45217;-83
2021/08/11 06:28:47;;;;;;;;;4.00;4.00;;;;;21.05;63.04;101543.22;5002407;28;45333;-83
2021/08/11 06:31:17;;;;;;;;;3.50;3.50;;;;;21.08;63.12;101553.00;5001880;28;46799;-82
2021/08/11 06:33:45;;;;;;;;;3.50;3.50;;;;;21.10;63.12;101557.38;5002023;28;45268;-83
2021/08/11 06:36:11;;;;;;;;;3.25;3.25;;;;;21.16;63.05;101560.66;5002157;28;45375;-82
2021/08/11 06:38:37;;;;;;;;;4.75;4.75;;;;;21.18;63.08;101558.72;5001499;28;45229;-84
2021/08/11 06:41:02;;;;;;;;;4.50;4.50;;;;;21.20;63.41;101560.38;5001640;28;46263;-83
2021/08/11 06:43:27;;;;;;;;;6.25;6.25;;;;;21.19;62.96;101557.75;5001870;28;45268;-83
2021/08/11 06:45:53;;;;;;;;;5.25;5.25;;;;;21.17;63.21;101565.13;5002018;28;45383;-83
2021/08/11 06:48:18;;;;;;;;;5.75;5.75;;;;;21.17;62.86;101562.41;5002235;28;45342;-83
2021/08/11 06:50:43;;;;;;;;;5.50;4.00;;;;;21.13;62.70;101556.28;5001757;28;45345;-82
2021/08/11 06:53:08;;;;;;;;;4.00;4.00;;;;;21.19;62.72;101555.91;5001871;28;50679;-83
2021/08/11 06:55:34;;;;;;;;;5.75;4.50;;;;;21.24;63.04;101556.47;5001830;28;45210;-82
2021/08/11 06:57:59;;;;;;;;;4.75;4.75;;;;;21.25;62.41;101560.94;5001733;28;46238;-83
2021/08/11 07:00:24;;;;;;;;;6.00;5.75;;;;;21.29;62.84;101550.75;5001576;28;45299;-82
2021/08/11 07:02:50;;;;;;;;;3.25;3.00;;;;;21.27;62.92;101550.84;5001684;28;45284;-82
2021/08/11 07:05:15;;;;;;;;;4.75;3.25;;;;;21.33;62.96;101555.00;5001920;28;45373;-82
2021/08/11 07:07:41;;;;;;;;;3.25;3.25;;;;;21.35;63.11;101552.19;5001550;28;45325;-83
2021/08/11 07:10:14;;;;;;;;;4.50;3.75;;;;;21.37;63.01;101552.97;5001573;28;46007;-82
2021/08/11 07:12:40;;;;;;;;;2.50;2.50;;;;;21.35;62.62;101544.94;5001646;28;45343;-82
2021/08/11 07:15:07;;;;;;;;;2.25;2.25;;;;;21.37;62.38;101548.41;5001379;28;45536;-82
2021/08/11 07:17:33;;;;;;;;;3.00;3.00;;;;;21.39;62.53;101553.75;5001384;28;45241;-82
2021/08/11 07:19:58;;;;;;;;;6.00;6.00;;;;;21.38;62.02;101550.13;5001354;28;46212;-82
2021/08/11 07:22:24;;;;;;;;;4.00;3.00;;;;;21.38;61.83;101558.28;5001586;28;45437;-83
2021/08/11 07:24:50;;;;;;;;;2.75;2.75;;;;;21.44;61.23;101565.19;5001495;28;45363;-83
2021/08/11 07:27:15;;;;;;;;;2.00;2.00;;;;;21.45;60.89;101566.91;5001402;28;45277;-83
2021/08/11 07:29:40;;;;;;;;;3.00;3.00;;;;;21.45;61.39;101566.91;5000873;28;46134;-82
2021/08/11 07:32:06;;;;;;;;;2.25;2.25;;;;;21.49;61.23;101570.34;5001305;28;45288;-83
2021/08/11 07:34:31;;;;;;;;;3.00;3.00;;;;;21.49;60.34;101576.66;5001145;28;45209;-83
2021/08/11 07:36:57;;;;;;;;;3.00;3.00;;;;;21.51;59.76;101573.84;5001193;28;45292;-83
2021/08/11 07:39:23;;;;;;;;;3.25;2.00;;;;;21.50;60.00;101583.84;5001071;28;45990;-82
2021/08/11 07:41:48;;;;;;;;;4.00;4.00;;;;;21.52;61.18;101586.41;5001149;28;45205;-82
2021/08/11 07:44:13;;;;;;;;;3.25;3.25;;;;;21.53;60.46;101580.88;5001051;28;45708;-82
2021/08/11 07:46:39;;;;;;;;;4.00;4.00;;;;;21.58;61.00;101577.88;5001219;28;45217;-83
2021/08/11 07:49:04;;;;;;;;;3.75;3.75;;;;;21.58;61.06;101581.47;5000961;28;45440;-83
2021/08/11 07:51:29;;;;;;;;;5.00;3.50;;;;;21.65;60.89;101584.66;4999513;28;45347;-83
2021/08/11 07:53:55;;;;;;;;;6.50;6.00;;;;;21.68;59.98;101583.59;5000886;28;45256;-83
2021/08/11 07:56:21;;;;;;;;;4.75;3.75;;;;;21.73;60.48;101585.00;5001061;28;45589;-83
2021/08/11 07:58:46;;;;;;;;;5.00;3.00;;;;;21.79;60.01;101575.59;5000521;28;46464;-83
2021/08/11 08:01:12;;;;;;;;;3.00;3.00;;;;;21.80;59.13;101580.03;5000977;28;45300;-83
2021/08/11 08:03:37;;;;;;;;;3.50;3.50;;;;;21.81;58.99;101576.38;5000787;28;45414;-83
2021/08/11 08:06:02;;;;;;;;;5.00;3.50;;;;;21.82;58.76;101572.69;5000914;28;45313;-83
2021/08/11 08:08:28;;;;;;;;;4.00;4.00;;;;;21.82;59.96;101569.97;4999267;28;47196;-83
2021/08/11 08:10:53;;;;;;;;;6.00;4.00;;;;;21.82;59.67;101562.69;5000658;28;45303;-83
2021/08/11 08:13:20;;;;;;;;;4.00;2.50;;;;;21.90;59.05;101564.00;5000522;28;45525;-82
2021/08/11 08:15:47;;;;;;;;;3.50;2.00;;;;;21.90;58.99;101559.44;5000691;28;45246;-82
2021/08/11 08:18:13;;;;;;;;;4.50;4.50;;;;;21.96;58.50;101558.16;5000226;28;46967;-82
2021/08/11 08:20:38;;;;;;;;;4.50;4.00;;;;;21.99;58.58;101555.25;5000816;28;45759;-82
2021/08/11 08:23:03;;;;;;;;;3.75;3.25;;;;;21.96;59.27;101552.72;5000496;28;45482;-82
2021/08/11 08:25:29;;;;;;;;;3.25;3.25;;;;;22.06;59.69;101558.41;5000463;28;45250;-82
2021/08/11 08:27:54;;;;;;;;;3.50;3.50;;;;;22.09;58.81;101553.63;5000326;28;46295;-82
2021/08/11 08:30:20;;;;;;;;;4.50;4.50;;;;;22.15;59.01;101558.66;5000122;28;45453;-82
2021/08/11 08:32:46;;;;;;;;;3.50;3.50;;;;;22.17;58.27;101555.84;5000090;28;45490;-82
2021/08/11 08:35:12;;;;;;;;;6.00;6.00;;;;;22.21;57.88;101560.94;5000071;28;45300;-83
2021/08/11 08:37:38;;;;;;;;;6.00;4.00;;;;;22.24;58.44;101569.88;4999701;28;46081;-82
2021/08/11 08:40:06;;;;;;;;;4.25;4.00;;;;;22.24;58.20;101573.47;5000376;28;45426;-82
2021/08/11 08:42:32;;;;;;;;;3.00;3.00;;;;;22.18;58.51;101561.13;4999954;28;45233;-82
2021/08/11 08:44:57;;;;;;;;;5.00;4.00;;;;;22.29;58.87;101570.47;4999976;28;45217;-83
2021/08/11 08:47:24;;;;;;;;;5.25;4.00;;;;;22.30;58.65;101564.03;4999744;28;46045;-82
2021/08/11 08:49:50;;;;;;;;;3.25;3.25;;;;;22.35;58.61;101562.75;5000148;28;45434;-82
2021/08/11 08:52:20;;;;;;;;;3.50;3.50;;;;;22.33;57.71;101558.38;4999916;28;45300;-83
2021/08/11 08:54:46;;;;;;;;;4.00;4.00;;;;;22.39;57.89;101558.84;4999828;28;45166;-83
2021/08/11 08:57:15;;;;;;;;;4.00;4.00;;;;;22.42;58.29;101565.94;4999717;28;45379;-83
2021/08/11 08:59:45;;;;;;;;;4.00;4.00;;;;;22.43;58.41;101564.94;4999841;28;45352;-83
2021/08/11 09:02:14;;;;;;;;;5.50;4.75;;;;;22.46;58.43;101563.84;5000585;28;45293;-83
2021/08/11 09:04:40;;;;;;;;;4.00;3.25;;;;;22.48;58.31;101567.34;5003389;28;45174;-82
2021/08/11 09:07:13;;;;;;;;;3.50;3.50;;;;;22.48;57.85;101562.75;5003197;28;45361;-82
2021/08/11 09:09:39;;;;;;;;;3.50;3.25;;;;;22.47;57.71;101565.56;5003486;28;45407;-83
2021/08/11 09:12:16;;;;;;;;;6.50;5.50;;;;;22.52;57.27;101567.03;5003523;28;45458;-83
2021/08/11 09:14:45;;;;;;;;;5.75;5.00;;;;;22.52;57.75;101561.56;5003068;28;45523;-83
2021/08/11 09:17:13;;;;;;;;;4.00;4.00;;;;;22.54;57.37;101562.34;5003058;28;46190;-82
2021/08/11 09:19:44;;;;;;;;;6.00;5.00;;;;;22.57;57.08;101564.00;5003249;28;45174;-83
2021/08/11 09:22:11;;;;;;;;;5.75;4.50;;;;;22.58;57.40;101554.81;5003481;28;45597;-82
2021/08/11 09:24:38;;;;;;;;;6.25;6.25;;;;;22.62;57.50;101548.22;5003229;28;45241;-83
2021/08/11 09:27:22;;;;;;;;;5.00;5.00;;;;;22.64;57.94;101548.97;5002879;28;46205;-83
2021/08/11 09:30:07;;;;;;;;;4.50;4.50;;;;;22.67;57.91;101551.47;5002968;28;45527;-82
2021/08/11 09:32:48;;;;;;;;;6.00;6.00;;;;;22.69;57.53;101545.91;5003050;28;45237;-83
2021/08/11 09:35:14;;;;;;;;;4.75;4.75;;;;;22.68;57.66;101545.03;5003331;28;45498;-83
2021/08/11 09:37:42;;;;;;;;;4.25;4.25;;;;;22.72;57.66;101549.28;5002895;28;47044;-83
2021/08/11 09:40:12;;;;;;;;;7.50;6.00;;;;;22.75;57.25;101556.34;5003138;28;45332;-83
2021/08/11 09:42:38;;;;;;;;;6.25;5.25;;;;;22.78;57.80;101552.56;5002903;28;45253;-84
2021/08/11 09:45:04;;;;;;;;;3.25;3.25;;;;;22.81;57.63;101557.78;5002806;28;45383;-83
2021/08/11 09:47:30;;;;;;;;;5.75;5.75;;;;;22.83;57.20;101547.66;5002702;28;45409;-84
2021/08/11 09:50:13;;;;;;;;;6.00;6.00;;;;;22.84;57.60;101553.00;5002875;28;45277;-84
2021/08/11 09:52:47;;;;;;;;;5.75;5.75;;;;;22.87;57.03;101550.06;5003110;28;45984;-83
2021/08/11 09:55:12;;;;;;;;;4.75;4.75;;;;;22.90;57.22;101551.66;5002719;28;45375;-84
2021/08/11 09:57:38;;;;;;;;;5.25;5.25;;;;;22.91;57.57;101548.84;5002514;28;45403;-83
2021/08/11 10:00:04;;;;;;;;;5.50;5.00;;;;;22.94;57.60;101542.31;5002521;28;45316;-83
2021/08/11 10:02:30;;;;;;;;;6.00;6.00;;;;;22.99;57.16;101548.28;5002798;28;45451;-84
2021/08/11 10:04:56;;;;;;;;;5.00;5.00;;;;;23.01;56.46;101559.06;5002519;28;45466;-84
2021/08/11 10:07:21;;;;;;;;;6.00;6.00;;;;;23.02;56.62;101550.81;5002608;28;45187;-83
2021/08/11 10:10:08;;;;;;;;;6.25;5.75;;;;;23.06;56.91;101543.28;5002496;28;45284;-84
2021/08/11 10:12:35;;;;;;;;;4.50;4.50;;;;;23.08;56.49;101544.91;5001570;28;45324;-83
2021/08/11 10:15:06;;;;;;;;;8.00;6.25;;;;;23.12;56.51;101540.13;5002159;28;45382;-83
2021/08/11 10:17:34;;;;;;;;;6.00;6.00;;;;;23.15;56.92;101544.47;5002207;28;46336;-84
2021/08/11 10:20:04;;;;;;;;;4.25;4.25;;;;;23.17;56.80;101537.06;5002334;28;45502;-84
2021/08/11 10:22:31;;;;;;;;;5.75;5.75;;;;;23.23;56.73;101531.19;5002582;28;45238;-84
2021/08/11 10:24:57;;;;;;;;;5.75;5.50;;;;;23.26;56.62;101533.69;5002207;28;45477;-84
2021/08/11 10:27:23;;;;;;;;;6.00;6.00;;;;;23.34;55.97;101536.72;5002126;28;46188;-83
2021/08/11 10:29:51;;;;;;;;;5.50;5.50;;;;;23.39;56.13;101533.63;5001976;28;45240;-83
2021/08/11 10:32:16;;;;;;;;;4.25;4.25;;;;;23.43;56.14;101535.16;5002306;28;45435;-84
2021/08/11 10:34:46;;;;;;;;;5.75;4.00;;;;;23.47;56.66;101533.94;5002376;28;45376;-83
2021/08/11 10:37:13;;;;;;;;;6.00;5.25;;;;;23.53;56.35;101536.19;5001855;28;46472;-84
2021/08/11 10:39:40;;;;;;;;;11.75;8.00;;;;;23.55;56.19;101531.50;5002112;28;45280;-84
2021/08/11 10:42:15;;;;;;;;;4.50;4.50;;;;;23.60;55.72;101533.88;5002163;28;45348;-84
2021/08/11 10:44:41;;;;;;;;;7.00;6.00;;;;;23.59;55.67;101538.47;5001918;28;45555;-83
2021/08/11 10:47:09;;;;;;;;;5.00;5.00;;;;;23.62;55.13;101540.09;5001890;28;45417;-83
2021/08/11 10:49:57;;;;;;;;;4.00;3.50;;;;;23.65;55.39;101539.88;5001996;28;45515;-83
2021/08/11 10:52:24;;;;;;;;;5.50;5.50;;;;;23.65;54.92;101538.00;5001923;28;45313;-83
2021/08/11 10:54:53;;;;;;;;;4.25;4.25;;;;;23.68;54.57;101537.78;5001922;28;45561;-84
2021/08/11 10:57:34;;;;;;;;;7.00;6.00;;;;;23.71;55.19;101541.28;5001380;28;46327;-83
2021/08/11 11:00:21;;;;;;;;;7.50;7.50;;;;;23.74;54.10;101535.56;5001634;28;45245;-83
2021/08/11 11:02:48;;;;;;;;;5.75;5.50;;;;;23.67;54.45;101526.97;5000874;28;45315;-84
2021/08/11 11:05:19;;;;;;;;;6.50;5.75;;;;;23.75;53.96;101535.44;5001564;28;45483;-84
2021/08/11 11:08:05;;;;;;;;;7.75;6.00;;;;;23.79;54.85;101533.34;5001576;28;45488;-84
2021/08/11 11:10:30;;;;;;;;;8.00;7.00;;;;;23.84;54.12;101532.06;5001561;28;45420;-85
2021/08/11 11:12:56;;;;;;;;;7.75;6.00;;;;;23.87;53.58;101522.78;5001689;28;45330;-84
2021/08/11 11:15:54;;;;;;;;;6.25;6.00;;;;;23.92;53.72;101520.56;5001315;28;45547;-83
2021/08/11 11:18:21;;;;;;;;;7.50;6.25;;;;;23.96;53.52;101513.03;4978778;28;46321;-84
2021/08/11 11:20:55;;;;;;;;;4.25;4.25;;;;;24.00;52.88;101509.06;5001497;28;45347;-83
2021/08/11 11:23:40;;;;;;;;;8.75;5.75;;;;;24.02;53.23;101509.81;5001598;28;45240;-83
2021/08/11 11:26:14;;;;;;;;;5.75;5.75;;;;;24.02;53.16;101504.38;5000573;28;45538;-83